createdAt,value
2022-12-09T00:00:33.053Z,100723.22
2022-12-09T00:02:59.704Z,100742.06
2022-12-09T00:05:26.260Z,100719.09
2022-12-09T00:07:52.721Z,100745.84
2022-12-09T00:10:19.318Z,100725.19
2022-12-09T00:12:45.779Z,100715.06
2022-12-09T00:15:12.461Z,100728.53
2022-12-09T00:17:38.851Z,100709.88
2022-12-09T00:20:06.419Z,100725.16
2022-12-09T00:22:33.248Z,100740.84
2022-12-09T00:24:59.862Z,100714.94
2022-12-09T00:27:26.760Z,100725.47
2022-12-09T00:29:53.167Z,100701.22
2022-12-09T00:32:19.637Z,100736.91
2022-12-09T00:34:46.147Z,100741.81
2022-12-09T00:37:12.596Z,100728.88
2022-12-09T00:39:39.107Z,100700.75
2022-12-09T00:42:05.644Z,100703.91
2022-12-09T00:44:32.098Z,100703.59
2022-12-09T00:46:58.666Z,100703.00
2022-12-09T00:49:25.261Z,100752.47
2022-12-09T00:51:54.104Z,100724.38
2022-12-09T00:54:20.677Z,100719.41
2022-12-09T00:56:47.062Z,100714.59
2022-12-09T00:59:13.468Z,100734.72
2022-12-09T01:01:39.978Z,100741.56
2022-12-09T01:04:08.354Z,100722.81
2022-12-09T01:06:35.381Z,100705.31
2022-12-09T01:09:03.265Z,100728.59
2022-12-09T01:11:30.630Z,100720.94
2022-12-09T01:14:01.671Z,100777.13
2022-12-09T01:16:30.326Z,100737.72
2022-12-09T01:18:59.666Z,100794.63
2022-12-09T01:21:27.833Z,100722.13
2022-12-09T01:23:54.709Z,100744.88
2022-12-09T01:26:21.524Z,100733.22
2022-12-09T01:28:52.635Z,100729.97
2022-12-09T01:31:23.053Z,100730.69
2022-12-09T01:33:49.882Z,100804.97
2022-12-09T01:36:19.698Z,100748.88
2022-12-09T01:38:47.263Z,100754.38
2022-12-09T01:41:14.900Z,100807.72
2022-12-09T01:43:41.527Z,100732.41
2022-12-09T01:46:08.634Z,100811.19
2022-12-09T01:48:39.118Z,100808.59
2022-12-09T01:51:18.552Z,100749.75
2022-12-09T01:53:47.287Z,100745.97
2022-12-09T01:56:27.268Z,100792.88
2022-12-09T01:58:54.378Z,100734.88
2022-12-09T02:01:21.507Z,100749.53
2022-12-09T02:03:49.610Z,100750.31
2022-12-09T02:06:16.784Z,100797.91
2022-12-09T02:08:44.076Z,100718.06
2022-12-09T02:11:26.097Z,100799.25
2022-12-09T02:13:57.835Z,100793.03
2022-12-09T02:16:26.234Z,100783.84
2022-12-09T02:19:12.254Z,100718.06
2022-12-09T02:21:49.610Z,100715.63
2022-12-09T02:24:22.328Z,100744.41
2022-12-09T02:26:55.804Z,100782.28
2022-12-09T02:29:36.256Z,100729.91
2022-12-09T02:32:28.964Z,100777.94
2022-12-09T02:35:00.234Z,100757.19
2022-12-09T02:37:42.679Z,100764.06
2022-12-09T02:40:38.190Z,100728.94
2022-12-09T02:43:06.773Z,100753.75
2022-12-09T02:45:34.150Z,100780.03
2022-12-09T02:48:02.062Z,100761.03
2022-12-09T02:50:32.164Z,100779.81
2022-12-09T02:53:02.168Z,100707.47
2022-12-09T02:55:30.383Z,100702.84
2022-12-09T02:57:59.990Z,100720.44
2022-12-09T03:00:27.725Z,100697.47
2022-12-09T03:03:03.256Z,100783.47
2022-12-09T03:05:34.167Z,100777.31
2022-12-09T03:08:17.564Z,100776.31
2022-12-09T03:11:03.822Z,100775.47
2022-12-09T03:13:51.853Z,100776.00
2022-12-09T03:16:26.053Z,100723.13
2022-12-09T03:19:04.492Z,100737.78
2022-12-09T03:21:32.408Z,100733.00
2022-12-09T03:23:59.582Z,100703.47
2022-12-09T03:26:28.512Z,100692.78
2022-12-09T03:28:55.920Z,100713.59
2022-12-09T03:31:24.954Z,100685.94
2022-12-09T03:33:54.368Z,100688.56
2022-12-09T03:36:22.581Z,100752.34
2022-12-09T03:38:49.280Z,100680.41
2022-12-09T03:41:33.362Z,100711.66
2022-12-09T03:44:05.231Z,100686.03
2022-12-09T03:46:32.222Z,100708.81
2022-12-09T03:48:58.767Z,100747.22
2022-12-09T03:51:29.639Z,100751.69
2022-12-09T03:54:07.009Z,100686.81
2022-12-09T03:56:38.627Z,100677.81
2022-12-09T03:59:13.932Z,100681.31
2022-12-09T04:01:41.824Z,100751.34
2022-12-09T04:04:09.047Z,100757.25
2022-12-09T04:06:35.746Z,100680.75
2022-12-09T04:09:03.598Z,100694.94
2022-12-09T04:11:31.553Z,100749.88
2022-12-09T04:13:58.380Z,100750.59
2022-12-09T04:16:25.245Z,100663.47
2022-12-09T04:18:51.781Z,100667.75
2022-12-09T04:21:18.405Z,100702.56
2022-12-09T04:23:44.864Z,100719.22
2022-12-09T04:26:16.978Z,100663.94
2022-12-09T04:28:43.475Z,100724.53
2022-12-09T04:31:11.781Z,100652.09
2022-12-09T04:33:38.707Z,100690.16
2022-12-09T04:36:06.934Z,100742.06
2022-12-09T04:38:33.506Z,100657.75
2022-12-09T04:41:00.880Z,100737.88
2022-12-09T04:43:27.501Z,100649.56
2022-12-09T04:45:54.278Z,100656.75
2022-12-09T04:48:21.055Z,100673.69
2022-12-09T04:50:47.531Z,100664.69
2022-12-09T04:53:13.993Z,100723.72
2022-12-09T04:55:40.772Z,100705.66
2022-12-09T04:58:07.234Z,100699.22
2022-12-09T05:00:33.879Z,100662.50
2022-12-09T05:03:00.436Z,100670.53
2022-12-09T05:05:27.107Z,100662.78
2022-12-09T05:07:54.121Z,100647.25
2022-12-09T05:10:20.869Z,100657.06
2022-12-09T05:12:47.510Z,100656.31
2022-12-09T05:15:14.483Z,100731.94
2022-12-09T05:17:41.473Z,100733.03
2022-12-09T05:20:09.708Z,100663.88
2022-12-09T05:22:36.418Z,100673.16
2022-12-09T05:25:03.027Z,100737.84
2022-12-09T05:27:29.860Z,100667.91
2022-12-09T05:29:56.502Z,100717.63
2022-12-09T05:32:23.203Z,100676.53
2022-12-09T05:34:49.724Z,100676.69
2022-12-09T05:37:16.629Z,100643.00
2022-12-09T05:39:43.195Z,100675.00
2022-12-09T05:42:09.934Z,100673.38
2022-12-09T05:44:36.838Z,100688.53
2022-12-09T05:47:03.826Z,100674.16
2022-12-09T05:49:30.601Z,100668.91
2022-12-09T05:51:57.585Z,100675.34
2022-12-09T05:54:24.203Z,100682.34
2022-12-09T05:56:51.241Z,100674.00
2022-12-09T05:59:18.039Z,100699.63
2022-12-09T06:01:45.173Z,100665.00
2022-12-09T06:04:12.081Z,100693.25
2022-12-09T06:06:38.940Z,100689.25
2022-12-09T06:09:11.379Z,100661.91
2022-12-09T06:11:39.470Z,100717.97
2022-12-09T06:14:10.729Z,100696.34
2022-12-09T06:16:37.597Z,100679.47
2022-12-09T06:19:05.274Z,100666.09
2022-12-09T06:21:31.828Z,100718.06
2022-12-09T06:23:58.683Z,100670.19
2022-12-09T06:26:27.605Z,100652.75
2022-12-09T06:28:54.876Z,100675.66
2022-12-09T06:31:21.471Z,100648.13
2022-12-09T06:33:57.971Z,100745.66
2022-12-09T06:36:25.530Z,100745.03
2022-12-09T06:38:52.732Z,100670.94
2022-12-09T06:41:19.333Z,100651.75
2022-12-09T06:43:46.151Z,100662.56
2022-12-09T06:46:18.611Z,100676.38
2022-12-09T06:48:45.808Z,100743.84
2022-12-09T06:51:12.889Z,100667.94
2022-12-09T06:53:39.737Z,100696.81
2022-12-09T06:56:12.197Z,100672.56
2022-12-09T06:58:40.625Z,100745.03
2022-12-09T07:01:14.080Z,100748.41
2022-12-09T07:03:42.878Z,100744.03
2022-12-09T07:06:32.845Z,100750.31
2022-12-09T07:09:01.843Z,100735.19
2022-12-09T07:11:29.214Z,100688.31
2022-12-09T07:13:56.295Z,100689.13
2022-12-09T07:16:23.120Z,100697.47
2022-12-09T07:18:50.385Z,100718.94
2022-12-09T07:21:18.856Z,100675.81
2022-12-09T07:23:46.031Z,100743.47
2022-12-09T07:26:13.178Z,100649.75
2022-12-09T07:28:42.730Z,100670.56
2022-12-09T07:31:21.444Z,100685.84
2022-12-09T07:33:48.512Z,100671.47
2022-12-09T07:36:20.675Z,100654.22
2022-12-09T07:38:48.254Z,100692.03
2022-12-09T07:41:20.956Z,100701.56
2022-12-09T07:43:48.160Z,100741.41
2022-12-09T07:46:16.543Z,100690.13
2022-12-09T07:48:43.434Z,100688.38
2022-12-09T07:51:10.275Z,100716.94
2022-12-09T07:53:37.961Z,100760.41
2022-12-09T07:56:06.675Z,100686.47
2022-12-09T07:58:33.772Z,100751.50
2022-12-09T08:01:11.537Z,100729.50
2022-12-09T08:03:40.315Z,100688.38
2022-12-09T08:06:07.108Z,100724.47
2022-12-09T08:08:34.149Z,100727.66
2022-12-09T08:11:21.684Z,100758.50
2022-12-09T08:13:48.555Z,100680.47
2022-12-09T08:16:17.608Z,100685.81
2022-12-09T08:18:44.806Z,100700.94
2022-12-09T08:21:14.031Z,100685.13
2022-12-09T08:23:41.130Z,100694.84
2022-12-09T08:26:09.064Z,100693.13
2022-12-09T08:28:36.459Z,100710.50
2022-12-09T08:31:11.580Z,100757.13
2022-12-09T08:33:39.078Z,100704.69
2022-12-09T08:36:10.368Z,100736.31
2022-12-09T08:38:37.087Z,100746.56
2022-12-09T08:41:15.546Z,100707.03
2022-12-09T08:43:42.925Z,100755.38
2022-12-09T08:46:10.442Z,100757.75
2022-12-09T08:48:38.087Z,100716.34
2022-12-09T08:51:05.878Z,100753.84
2022-12-09T08:53:32.417Z,100716.72
2022-12-09T08:55:58.931Z,100745.72
2022-12-09T08:58:25.730Z,100743.47
2022-12-09T09:00:52.567Z,100709.91
2022-12-09T09:03:19.420Z,100726.28
2022-12-09T09:05:46.484Z,100725.56
2022-12-09T09:08:13.379Z,100693.94
2022-12-09T09:10:40.192Z,100761.72
2022-12-09T09:13:07.105Z,100697.53
2022-12-09T09:15:33.727Z,100715.91
2022-12-09T09:18:02.196Z,100731.97
2022-12-09T09:20:28.923Z,100752.63
2022-12-09T09:23:02.634Z,100735.47
2022-12-09T09:25:29.965Z,100738.34
2022-12-09T09:27:56.580Z,100727.22
2022-12-09T09:30:23.602Z,100753.16
2022-12-09T09:32:50.290Z,100718.84
2022-12-09T09:35:17.231Z,100730.56
2022-12-09T09:37:43.910Z,100719.47
2022-12-09T09:40:11.424Z,100744.38
2022-12-09T09:42:45.302Z,100757.44
2022-12-09T09:45:16.546Z,100753.88
2022-12-09T09:47:55.223Z,100743.06
2022-12-09T09:50:48.871Z,100764.56
2022-12-09T09:53:22.096Z,100759.16
2022-12-09T09:55:58.222Z,100748.75
2022-12-09T09:58:36.811Z,100753.31
2022-12-09T10:01:14.663Z,100767.72
2022-12-09T10:04:20.736Z,100765.25
2022-12-09T10:07:14.039Z,100762.59
2022-12-09T10:09:59.781Z,100755.66
2022-12-09T10:13:06.833Z,100755.53
2022-12-09T10:15:40.933Z,100759.63
2022-12-09T10:18:20.150Z,100770.66
2022-12-09T10:20:46.920Z,100759.09
2022-12-09T10:23:16.361Z,100764.97
2022-12-09T10:26:04.163Z,100757.50
2022-12-09T10:28:34.695Z,100763.09
2022-12-09T10:31:02.659Z,100748.31
2022-12-09T10:33:35.382Z,100748.22
2022-12-09T10:36:02.148Z,100765.84
2022-12-09T10:38:30.263Z,100774.31
2022-12-09T10:41:02.899Z,100729.16
2022-12-09T10:43:38.974Z,100770.84
2022-12-09T10:46:24.204Z,100769.63
2022-12-09T10:48:57.567Z,100720.50
2022-12-09T10:51:34.764Z,100767.34
2022-12-09T10:54:21.017Z,100755.72
2022-12-09T10:57:16.406Z,100769.34
2022-12-09T11:00:02.995Z,100763.22
2022-12-09T11:02:31.154Z,100753.75
2022-12-09T11:05:20.898Z,100760.44
2022-12-09T11:07:49.580Z,100737.09
2022-12-09T11:10:20.352Z,100718.31
2022-12-09T11:12:51.332Z,100720.31
2022-12-09T11:15:28.807Z,100753.56
2022-12-09T11:18:07.913Z,100742.34
2022-12-09T11:20:35.580Z,100737.41
2022-12-09T11:23:17.959Z,100743.47
2022-12-09T11:25:53.925Z,100719.09
2022-12-09T11:28:26.946Z,100706.13
2022-12-09T11:34:03.220Z,100731.28
2022-12-09T11:36:38.735Z,100746.34
2022-12-09T11:39:15.868Z,100751.16
2022-12-09T11:42:07.358Z,100669.38
2022-12-09T11:44:38.207Z,100719.50
2022-12-09T11:47:21.976Z,100724.97
2022-12-09T11:49:51.613Z,100744.63
2022-12-09T11:52:17.996Z,100755.00
2022-12-09T11:54:53.132Z,100732.59
2022-12-09T11:57:33.150Z,100720.50
2022-12-09T12:00:06.286Z,100737.44
2022-12-09T12:02:44.999Z,100699.44
2022-12-09T12:05:23.342Z,100707.88
2022-12-09T12:08:01.518Z,100731.78
2022-12-09T12:10:42.057Z,100725.72
2022-12-09T12:14:05.777Z,100746.72
2022-12-09T12:16:44.080Z,100731.06
2022-12-09T12:19:17.585Z,100712.88
2022-12-09T12:22:09.392Z,100731.31
2022-12-09T12:24:57.352Z,100717.88
2022-12-09T12:27:44.052Z,100720.97
2022-12-09T12:30:11.882Z,100734.34
2022-12-09T12:33:52.834Z,100755.38
2022-12-09T12:36:24.967Z,100756.25
2022-12-09T12:39:14.347Z,100752.63
2022-12-09T12:41:52.244Z,100751.94
2022-12-09T12:44:48.480Z,100718.50
2022-12-09T12:47:30.394Z,100759.47
2022-12-09T12:50:27.766Z,100716.69
2022-12-09T12:53:05.663Z,100733.41
2022-12-09T12:55:41.320Z,100697.44
2022-12-09T12:58:29.543Z,100746.84
2022-12-09T13:01:06.972Z,100721.25
2022-12-09T13:03:38.955Z,100743.31
2022-12-09T13:06:10.268Z,100647.97
2022-12-09T13:08:43.441Z,100735.22
2022-12-09T13:11:17.260Z,100659.47
2022-12-09T13:13:46.823Z,100736.38
2022-12-09T13:16:32.913Z,100728.00
2022-12-09T13:19:08.139Z,100713.53
2022-12-09T13:21:34.894Z,100711.47
2022-12-09T13:24:19.546Z,100689.13
2022-12-09T13:26:48.599Z,100738.13
2022-12-09T13:29:49.194Z,100741.09
2022-12-09T13:32:49.209Z,100698.84
2022-12-09T13:35:38.470Z,100717.19
2022-12-09T13:38:24.247Z,100692.25
2022-12-09T13:40:50.743Z,100666.75
2022-12-09T13:43:23.239Z,100727.84
2022-12-09T13:45:54.109Z,100704.31
2022-12-09T13:48:20.518Z,100720.19
2022-12-09T13:50:49.889Z,100713.56
2022-12-09T13:53:19.234Z,100716.44
2022-12-09T13:55:56.266Z,100714.34
2022-12-09T13:58:45.321Z,100705.41
2022-12-09T14:01:11.608Z,100706.38
2022-12-09T14:03:47.944Z,100681.97
2022-12-09T14:06:38.488Z,100693.88
2022-12-09T14:09:17.229Z,100702.84
2022-12-09T14:11:51.053Z,100703.06
2022-12-09T14:14:23.591Z,100705.19
2022-12-09T14:16:50.750Z,100706.00
2022-12-09T14:19:31.380Z,100710.66
2022-12-09T14:22:16.931Z,100716.91
2022-12-09T14:24:49.945Z,100707.38
2022-12-09T14:27:27.364Z,100719.94
2022-12-09T14:30:01.829Z,100704.41
2022-12-09T14:32:31.225Z,100693.09
2022-12-09T14:35:09.773Z,100715.00
2022-12-09T14:37:51.427Z,100720.38
2022-12-09T14:40:26.610Z,100718.75
2022-12-09T14:43:05.107Z,100725.84
2022-12-09T14:45:34.502Z,100717.50
2022-12-09T14:48:02.038Z,100725.16
2022-12-09T14:50:28.939Z,100694.69
2022-12-09T14:53:00.350Z,100722.38
2022-12-09T14:55:28.494Z,100712.13
2022-12-09T14:57:57.954Z,100724.31
2022-12-09T15:00:24.862Z,100724.22
2022-12-09T15:03:29.950Z,100725.97
2022-12-09T15:05:39.434Z,100691.63
2022-12-09T15:08:06.106Z,100681.28
2022-12-09T15:10:36.844Z,100715.50
2022-12-09T15:13:03.555Z,100722.03
2022-12-09T15:15:32.956Z,100712.38
2022-12-09T15:18:01.412Z,100635.78
2022-12-09T15:20:39.727Z,100711.19
2022-12-09T15:23:12.162Z,100710.47
2022-12-09T15:25:46.315Z,100704.47
2022-12-09T15:28:15.459Z,100698.56
2022-12-09T15:30:43.719Z,100706.84
2022-12-09T15:33:19.591Z,100668.69
2022-12-09T15:35:52.854Z,100660.31
2022-12-09T15:38:19.716Z,100668.28
2022-12-09T15:41:07.040Z,100728.00
2022-12-09T15:43:34.913Z,100706.88
2022-12-09T15:46:01.682Z,100688.69
2022-12-09T15:48:35.047Z,100733.94
2022-12-09T15:51:05.533Z,100695.75
2022-12-09T15:53:40.901Z,100737.94
2022-12-09T15:56:27.058Z,100741.22
2022-12-09T15:59:08.484Z,100743.63
2022-12-09T16:01:35.503Z,100650.47
2022-12-09T16:04:03.161Z,100715.88
2022-12-09T16:06:31.771Z,100741.09
2022-12-09T16:08:58.420Z,100733.03
2022-12-09T16:11:44.435Z,100747.91
2022-12-09T16:14:11.860Z,100685.19
2022-12-09T16:16:51.658Z,100747.50
2022-12-09T16:19:36.005Z,100735.47
2022-12-09T16:22:11.224Z,100740.06
2022-12-09T16:25:13.121Z,100738.50
2022-12-09T16:27:33.578Z,100731.69
2022-12-09T16:30:23.174Z,100749.13
2022-12-09T16:32:56.622Z,100750.56
2022-12-09T16:35:42.868Z,100731.06
2022-12-09T16:38:09.280Z,100752.31
2022-12-09T16:40:57.409Z,100696.09
2022-12-09T16:43:25.204Z,100753.44
2022-12-09T16:45:53.353Z,100721.16
2022-12-09T16:48:21.312Z,100735.16
2022-12-09T16:50:50.506Z,100742.81
2022-12-09T16:53:22.631Z,100757.63
2022-12-09T16:55:52.259Z,100730.47
2022-12-09T16:58:18.931Z,100710.72
2022-12-09T17:00:46.784Z,100761.72
2022-12-09T17:03:23.035Z,100750.63
2022-12-09T17:05:49.471Z,100729.09
2022-12-09T17:08:16.003Z,100741.03
2022-12-09T17:10:42.567Z,100692.81
2022-12-09T17:13:10.836Z,100739.69
2022-12-09T17:15:37.296Z,100734.47
2022-12-09T17:18:03.782Z,100711.47
2022-12-09T17:20:30.297Z,100759.81
2022-12-09T17:22:56.733Z,100733.84
2022-12-09T17:25:23.133Z,100693.22
2022-12-09T17:27:49.529Z,100746.78
2022-12-09T17:30:15.903Z,100731.06
2022-12-09T17:32:42.486Z,100724.31
2022-12-09T17:35:12.528Z,100743.81
2022-12-09T17:37:39.380Z,100768.34
2022-12-09T17:40:06.106Z,100755.97
2022-12-09T17:42:33.200Z,100701.53
2022-12-09T17:44:59.572Z,100733.66
2022-12-09T17:47:27.124Z,100790.88
2022-12-09T17:49:53.554Z,100730.03
2022-12-09T17:52:20.019Z,100790.25
2022-12-09T17:54:47.327Z,100790.25
2022-12-09T17:57:14.062Z,100794.03
2022-12-09T17:59:40.532Z,100759.88
2022-12-09T18:02:07.367Z,100770.59
2022-12-09T18:04:33.923Z,100710.16
2022-12-09T18:07:00.351Z,100738.06
2022-12-09T18:09:26.806Z,100776.69
2022-12-09T18:11:53.260Z,100771.81
2022-12-09T18:14:20.830Z,100790.34
2022-12-09T18:16:48.904Z,100777.53
2022-12-09T18:19:16.870Z,100799.78
2022-12-09T18:21:44.368Z,100782.72
2022-12-09T18:24:10.903Z,100794.63
2022-12-09T18:26:41.637Z,100787.63
2022-12-09T18:29:09.408Z,100801.00
2022-12-09T18:31:36.024Z,100788.09
2022-12-09T18:34:02.567Z,100796.28
2022-12-09T18:36:29.219Z,100803.84
2022-12-09T18:38:57.833Z,100783.38
2022-12-09T18:41:26.982Z,100798.28
2022-12-09T18:43:54.354Z,100786.03
2022-12-09T18:46:25.642Z,100808.84
2022-12-09T18:49:01.404Z,100769.00
2022-12-09T18:51:28.646Z,100803.13
2022-12-09T18:53:57.152Z,100809.22
2022-12-09T18:56:23.556Z,100787.94
2022-12-09T18:59:05.814Z,100781.50
2022-12-09T19:01:34.089Z,100802.59
2022-12-09T19:04:02.262Z,100785.56
2022-12-09T19:06:32.738Z,100811.59
2022-12-09T19:09:07.523Z,100802.59
2022-12-09T19:11:35.734Z,100810.78
2022-12-09T19:14:02.248Z,100791.13
2022-12-09T19:16:29.461Z,100746.31
2022-12-09T19:18:56.666Z,100790.66
2022-12-09T19:21:25.090Z,100785.22
2022-12-09T19:23:51.801Z,100789.69
2022-12-09T19:26:23.634Z,100810.78
2022-12-09T19:28:55.622Z,100781.50
2022-12-09T19:31:33.610Z,100794.69
2022-12-09T19:34:02.341Z,100787.22
2022-12-09T19:36:30.359Z,100803.97
2022-12-09T19:39:00.390Z,100768.69
2022-12-09T19:41:27.415Z,100800.97
2022-12-09T19:43:58.443Z,100822.53
2022-12-09T19:46:26.594Z,100804.69
2022-12-09T19:48:53.728Z,100768.44
2022-12-09T19:51:21.001Z,100807.16
2022-12-09T19:53:48.517Z,100820.09
2022-12-09T19:56:17.225Z,100834.09
2022-12-09T19:58:44.312Z,100755.31
2022-12-09T20:01:16.558Z,100834.94
2022-12-09T20:03:44.747Z,100817.81
2022-12-09T20:06:13.685Z,100752.41
2022-12-09T20:08:40.395Z,100822.75
2022-12-09T20:11:12.428Z,100748.22
2022-12-09T20:13:38.858Z,100836.94
2022-12-09T20:16:07.423Z,100831.91
2022-12-09T20:18:34.840Z,100815.53
2022-12-09T20:21:02.735Z,100810.09
2022-12-09T20:23:29.163Z,100823.00
2022-12-09T20:26:02.783Z,100829.44
2022-12-09T20:28:30.464Z,100807.72
2022-12-09T20:31:12.195Z,100811.91
2022-12-09T20:33:38.919Z,100832.94
2022-12-09T20:36:09.422Z,100839.31
2022-12-09T20:38:36.271Z,100823.09
2022-12-09T20:41:09.609Z,100824.91
2022-12-09T20:43:44.917Z,100855.22
2022-12-09T20:46:17.510Z,100858.59
2022-12-09T20:48:44.469Z,100856.94
2022-12-09T20:51:13.881Z,100865.31
2022-12-09T20:53:42.044Z,100862.41
2022-12-09T20:56:09.430Z,100863.75
2022-12-09T20:58:36.531Z,100834.38
2022-12-09T21:01:06.681Z,100863.31
2022-12-09T21:03:33.218Z,100822.44
2022-12-09T21:05:59.637Z,100863.69
2022-12-09T21:08:31.283Z,100884.88
2022-12-09T21:11:06.782Z,100891.81
2022-12-09T21:13:36.699Z,100869.13
2022-12-09T21:16:19.784Z,100868.38
2022-12-09T21:18:47.525Z,100845.69
2022-12-09T21:21:14.291Z,100844.69
2022-12-09T21:23:40.903Z,100859.34
2022-12-09T21:26:13.000Z,100882.53
2022-12-09T21:28:40.372Z,100874.00
2022-12-09T21:31:12.916Z,100860.88
2022-12-09T21:33:39.845Z,100858.69
2022-12-09T21:36:08.149Z,100864.63
2022-12-09T21:38:35.458Z,100806.41
2022-12-09T21:41:05.909Z,100862.63
2022-12-09T21:43:34.171Z,100795.44
2022-12-09T21:46:10.049Z,100858.56
2022-12-09T21:48:36.522Z,100824.50
2022-12-09T21:51:03.259Z,100862.56
2022-12-09T21:53:30.313Z,100833.34
2022-12-09T21:56:12.383Z,100848.94
2022-12-09T21:58:38.821Z,100817.25
2022-12-09T22:01:10.629Z,100854.75
2022-12-09T22:03:37.751Z,100833.53
2022-12-09T22:06:04.752Z,100831.81
2022-12-09T22:08:31.248Z,100812.97
2022-12-09T22:11:00.484Z,100834.72
2022-12-09T22:13:27.926Z,100838.38
2022-12-09T22:15:54.448Z,100784.88
2022-12-09T22:18:20.869Z,100825.34
2022-12-09T22:21:23.166Z,100853.19
2022-12-09T22:23:34.140Z,100854.38
2022-12-09T22:26:05.002Z,100839.47
2022-12-09T22:28:31.528Z,100834.16
2022-12-09T22:30:57.933Z,100824.53
2022-12-09T22:33:24.348Z,100832.38
2022-12-09T22:35:51.201Z,100850.16
2022-12-09T22:38:17.569Z,100834.19
2022-12-09T22:40:43.998Z,100812.00
2022-12-09T22:43:10.822Z,100838.81
2022-12-09T22:45:37.354Z,100843.09
2022-12-09T22:48:03.970Z,100843.22
2022-12-09T22:50:30.363Z,100814.38
2022-12-09T22:52:56.765Z,100850.13
2022-12-09T22:55:23.226Z,100804.19
2022-12-09T22:57:51.798Z,100783.59
2022-12-09T23:00:18.664Z,100858.66
2022-12-09T23:02:45.130Z,100875.31
2022-12-09T23:05:11.669Z,100835.56
2022-12-09T23:07:38.116Z,100833.91
2022-12-09T23:10:05.184Z,100850.38
2022-12-09T23:12:31.787Z,100865.94
2022-12-09T23:14:58.147Z,100860.75
2022-12-09T23:17:24.544Z,100779.66
2022-12-09T23:19:50.959Z,100872.09
2022-12-09T23:22:17.467Z,100847.78
2022-12-09T23:24:43.893Z,100870.56
2022-12-09T23:27:10.401Z,100831.22
2022-12-09T23:29:36.870Z,100838.69
2022-12-09T23:32:03.234Z,100877.72
2022-12-09T23:34:29.649Z,100845.97
2022-12-09T23:36:56.022Z,100829.94
2022-12-09T23:39:22.412Z,100862.09
2022-12-09T23:41:48.869Z,100821.78
2022-12-09T23:44:17.634Z,100876.38
2022-12-09T23:46:44.331Z,100876.31
2022-12-09T23:49:11.086Z,100879.41
2022-12-09T23:51:40.254Z,100879.66
2022-12-09T23:54:08.164Z,100834.34
2022-12-09T23:56:38.843Z,100876.13
2022-12-09T23:59:07.962Z,100886.84
